createdAt,value
2019-02-09T00:02:22.171Z,84.05
2019-02-09T00:04:52.307Z,84.06
2019-02-09T00:07:22.452Z,84.00
2019-02-09T00:09:52.657Z,83.94
2019-02-09T00:12:22.910Z,83.91
2019-02-09T00:14:53.145Z,83.89
2019-02-09T00:17:23.365Z,83.79
2019-02-09T00:19:53.578Z,83.75
2019-02-09T00:22:23.809Z,83.63
2019-02-09T00:24:54.147Z,83.61
2019-02-09T00:27:24.525Z,83.61
2019-02-09T00:29:55.034Z,83.67
2019-02-09T00:32:25.287Z,83.75
2019-02-09T00:34:55.596Z,83.83
2019-02-09T00:37:25.971Z,83.93
2019-02-09T00:39:56.209Z,84.03
2019-02-09T00:42:26.463Z,84.08
2019-02-09T00:44:57.327Z,84.15
2019-02-09T00:47:27.576Z,84.27
2019-02-09T00:49:57.922Z,84.26
2019-02-09T00:52:28.167Z,84.26
2019-02-09T00:54:58.537Z,84.34
2019-02-09T00:57:28.770Z,84.42
2019-02-09T00:59:59.214Z,84.41
2019-02-09T01:02:29.430Z,84.43
2019-02-09T01:04:59.659Z,84.46
2019-02-09T01:07:30.015Z,84.42
2019-02-09T01:10:00.469Z,84.41
2019-02-09T01:12:30.707Z,84.41
2019-02-09T01:15:01.019Z,84.36
2019-02-09T01:17:31.370Z,84.36
2019-02-09T01:20:01.595Z,84.30
2019-02-09T01:22:32.068Z,84.28
2019-02-09T01:25:02.209Z,84.19
2019-02-09T01:27:32.743Z,84.14
2019-02-09T01:30:03.124Z,84.08
2019-02-09T01:32:33.485Z,84.09
2019-02-09T01:35:04.139Z,84.08
2019-02-09T01:37:34.602Z,84.07
2019-02-09T01:40:06.896Z,84.10
2019-02-09T01:42:37.274Z,84.14
2019-02-09T01:45:09.842Z,84.24
2019-02-09T01:47:40.306Z,84.35
2019-02-09T01:50:12.923Z,84.41
2019-02-09T01:52:43.245Z,84.47
2019-02-09T01:55:13.814Z,84.53
2019-02-09T01:57:44.377Z,84.53
2019-02-09T02:00:24.013Z,84.51
2019-02-09T02:02:54.505Z,84.51
2019-02-09T02:05:27.158Z,84.57
2019-02-09T02:07:57.710Z,84.60
2019-02-09T02:10:33.981Z,84.62
2019-02-09T02:13:05.704Z,84.67
2019-02-09T02:15:36.262Z,84.74
2019-02-09T02:18:08.268Z,84.78
2019-02-09T02:20:39.099Z,84.78
2019-02-09T02:23:18.619Z,84.75
2019-02-09T02:25:49.062Z,84.79
2019-02-09T02:28:19.602Z,84.85
2019-02-09T02:30:50.152Z,84.93
2019-02-09T02:33:20.674Z,84.91
2019-02-09T02:35:51.145Z,84.48
2019-02-09T02:38:21.704Z,84.57
2019-02-09T02:40:52.223Z,84.58
2019-02-09T02:43:22.688Z,84.49
2019-02-09T02:45:53.260Z,84.48
2019-02-09T02:48:24.002Z,84.50
2019-02-09T02:50:54.374Z,84.51
2019-02-09T02:53:24.866Z,84.49
2019-02-09T02:55:55.328Z,84.36
2019-02-09T02:58:27.795Z,84.25
2019-02-09T03:00:58.083Z,84.10
2019-02-09T03:03:28.649Z,83.95
2019-02-09T03:05:59.276Z,83.93
2019-02-09T03:08:29.654Z,83.96
2019-02-09T03:11:00.062Z,84.13
2019-02-09T03:13:30.526Z,84.24
2019-02-09T03:16:00.786Z,84.27
2019-02-09T03:18:31.368Z,84.33
2019-02-09T03:21:01.755Z,84.27
2019-02-09T03:23:32.285Z,84.20
2019-02-09T03:26:02.874Z,84.21
2019-02-09T03:28:33.326Z,84.17
2019-02-09T03:31:03.564Z,84.28
2019-02-09T03:33:33.884Z,84.21
2019-02-09T03:36:04.285Z,84.11
2019-02-09T03:38:34.556Z,84.13
2019-02-09T03:41:04.888Z,84.10
2019-02-09T03:43:35.050Z,84.14
2019-02-09T03:46:05.800Z,84.29
2019-02-09T03:48:36.145Z,84.44
2019-02-09T03:51:06.759Z,84.44
2019-02-09T03:53:37.166Z,84.30
2019-02-09T03:56:07.430Z,84.27
2019-02-09T03:58:37.677Z,84.10
2019-02-09T04:01:07.917Z,84.04
2019-02-09T04:03:38.170Z,83.98
2019-02-09T04:06:08.480Z,83.87
2019-02-09T04:08:38.742Z,83.92
2019-02-09T04:11:08.808Z,84.03
2019-02-09T04:13:39.097Z,84.04
2019-02-09T04:16:09.328Z,84.07
2019-02-09T04:18:39.674Z,84.07
2019-02-09T04:21:10.011Z,84.01
2019-02-09T04:23:40.215Z,83.93
2019-02-09T04:26:10.568Z,83.82
2019-02-09T04:28:40.865Z,83.61
2019-02-09T04:31:11.103Z,83.43
2019-02-09T04:33:41.324Z,83.21
2019-02-09T04:36:11.694Z,83.02
2019-02-09T04:38:41.979Z,82.93
2019-02-09T04:41:12.136Z,82.63
2019-02-09T04:43:42.366Z,82.48
2019-02-09T04:46:12.722Z,82.22
2019-02-09T04:48:43.027Z,82.06
2019-02-09T04:51:13.287Z,81.85
2019-02-09T04:53:43.490Z,81.64
2019-02-09T04:56:13.912Z,81.56
2019-02-09T04:58:44.071Z,81.43
2019-02-09T05:01:14.565Z,81.14
2019-02-09T05:03:44.841Z,81.16
2019-02-09T05:06:15.085Z,81.10
2019-02-09T05:08:45.330Z,81.00
2019-02-09T05:11:15.508Z,80.85
2019-02-09T05:13:45.782Z,80.81
2019-02-09T05:16:16.030Z,80.62
2019-02-09T05:18:46.201Z,80.45
2019-02-09T05:21:16.589Z,80.43
2019-02-09T05:23:49.165Z,80.44
2019-02-09T05:26:19.428Z,80.30
2019-02-09T05:28:49.491Z,80.07
2019-02-09T05:31:23.090Z,79.94
2019-02-09T05:33:51.803Z,79.81
2019-02-09T05:36:22.046Z,79.60
2019-02-09T05:38:52.549Z,79.62
2019-02-09T05:41:22.883Z,79.28
2019-02-09T05:43:53.300Z,79.33
2019-02-09T05:46:23.899Z,79.31
2019-02-09T05:48:54.445Z,79.30
2019-02-09T05:51:24.783Z,79.22
2019-02-09T05:53:55.277Z,79.03
2019-02-09T05:56:25.959Z,78.92
2019-02-09T05:58:56.542Z,78.85
2019-02-09T06:01:32.230Z,78.67
2019-02-09T06:03:59.219Z,78.39
2019-02-09T06:06:29.659Z,78.31
2019-02-09T06:09:00.189Z,78.16
2019-02-09T06:11:31.823Z,78.19
2019-02-09T06:14:02.305Z,78.10
2019-02-09T06:16:32.821Z,78.07
2019-02-09T06:19:03.217Z,78.02
2019-02-09T06:21:33.578Z,77.97
2019-02-09T06:24:04.036Z,78.11
2019-02-09T06:26:34.517Z,77.97
2019-02-09T06:29:05.056Z,77.78
2019-02-09T06:31:41.042Z,77.79
2019-02-09T06:34:07.745Z,77.83
2019-02-09T06:36:38.190Z,77.93
2019-02-09T06:39:09.911Z,77.94
2019-02-09T06:41:40.464Z,77.95
2019-02-09T06:44:11.094Z,77.94
2019-02-09T06:46:41.595Z,77.99
2019-02-09T06:49:12.034Z,77.99
2019-02-09T06:51:42.587Z,78.01
2019-02-09T06:54:13.294Z,77.92
2019-02-09T06:56:43.828Z,77.83
2019-02-09T06:59:14.389Z,77.71
2019-02-09T07:01:48.754Z,77.56
2019-02-09T07:04:16.760Z,77.43
2019-02-09T07:06:47.469Z,77.39
2019-02-09T07:09:24.627Z,77.44
2019-02-09T07:11:54.886Z,77.34
2019-02-09T07:14:25.095Z,77.16
2019-02-09T07:16:55.691Z,77.00
2019-02-09T07:19:26.160Z,77.00
2019-02-09T07:21:56.442Z,76.78
2019-02-09T07:24:26.827Z,76.67
2019-02-09T07:26:57.058Z,76.61
2019-02-09T07:29:27.372Z,76.36
2019-02-09T07:31:57.592Z,76.06
2019-02-09T07:34:27.823Z,76.06
2019-02-09T07:36:58.069Z,75.67
2019-02-09T07:39:28.308Z,75.56
2019-02-09T07:41:58.576Z,75.40
2019-02-09T07:44:28.764Z,75.33
2019-02-09T07:46:59.020Z,75.07
2019-02-09T07:49:29.251Z,74.91
2019-02-09T07:51:59.395Z,74.85
2019-02-09T07:54:29.650Z,74.85
2019-02-09T07:56:59.893Z,74.89
2019-02-09T07:59:30.219Z,74.83
2019-02-09T08:02:04.729Z,74.66
2019-02-09T08:04:32.277Z,74.63
2019-02-09T08:07:02.619Z,74.63
2019-02-09T08:09:32.964Z,74.45
2019-02-09T08:12:03.293Z,74.24
2019-02-09T08:14:33.637Z,74.12
2019-02-09T08:17:04.070Z,73.89
2019-02-09T08:19:35.235Z,73.71
2019-02-09T08:22:05.869Z,73.38
2019-02-09T08:24:36.095Z,73.20
2019-02-09T08:27:06.987Z,73.16
2019-02-09T08:29:37.173Z,73.08
2019-02-09T08:32:12.547Z,72.90
2019-02-09T08:34:39.530Z,72.90
2019-02-09T08:37:09.824Z,72.94
2019-02-09T08:39:40.260Z,72.95
2019-02-09T08:42:10.539Z,72.52
2019-02-09T08:44:40.765Z,72.65
2019-02-09T08:47:11.189Z,72.52
2019-02-09T08:49:41.791Z,72.39
2019-02-09T08:52:12.114Z,72.46
2019-02-09T08:54:42.540Z,72.26
2019-02-09T08:57:15.175Z,71.95
2019-02-09T08:59:45.605Z,71.86
2019-02-09T09:02:20.545Z,71.82
2019-02-09T09:04:47.894Z,71.51
2019-02-09T09:07:19.801Z,71.36
2019-02-09T09:09:50.102Z,71.27
2019-02-09T09:12:20.264Z,70.48
2019-02-09T09:14:50.525Z,70.26
2019-02-09T09:17:20.860Z,70.14
2019-02-09T09:19:51.205Z,69.93
2019-02-09T09:22:21.570Z,69.71
2019-02-09T09:24:51.908Z,69.77
2019-02-09T09:27:22.374Z,69.70
2019-02-09T09:29:52.896Z,69.66
2019-02-09T09:32:28.516Z,69.31
2019-02-09T09:34:55.308Z,69.14
2019-02-09T09:37:25.667Z,68.55
2019-02-09T09:39:55.895Z,68.84
2019-02-09T09:42:26.160Z,69.15
2019-02-09T09:44:56.461Z,68.99
2019-02-09T09:47:26.717Z,68.60
2019-02-09T09:49:56.974Z,68.55
2019-02-09T09:52:27.240Z,68.49
2019-02-09T09:54:57.484Z,68.63
2019-02-09T09:57:30.905Z,68.66
2019-02-09T10:00:01.548Z,68.42
2019-02-09T10:02:36.576Z,68.49
2019-02-09T10:05:04.113Z,68.30
2019-02-09T10:07:35.344Z,68.52
2019-02-09T10:10:09.858Z,68.35
2019-02-09T10:12:40.170Z,68.27
2019-02-09T10:15:12.874Z,68.19
2019-02-09T10:17:43.202Z,68.01
2019-02-09T10:20:16.656Z,67.77
2019-02-09T10:22:46.919Z,67.65
2019-02-09T10:25:17.392Z,67.71
2019-02-09T10:27:47.958Z,67.61
2019-02-09T10:30:24.412Z,67.55
2019-02-09T10:32:54.804Z,67.51
2019-02-09T10:35:25.263Z,67.21
2019-02-09T10:37:55.758Z,67.34
2019-02-09T10:40:29.188Z,67.31
2019-02-09T10:43:00.202Z,66.86
2019-02-09T10:45:33.057Z,66.74
2019-02-09T10:48:03.504Z,66.40
2019-02-09T10:50:40.567Z,66.17
2019-02-09T10:53:11.229Z,66.09
2019-02-09T10:55:41.612Z,65.85
2019-02-09T10:58:12.066Z,65.99
2019-02-09T11:00:53.859Z,65.96
2019-02-09T11:03:24.433Z,65.57
2019-02-09T11:05:54.903Z,65.52
2019-02-09T11:08:26.361Z,65.07
2019-02-09T11:10:57.974Z,64.24
2019-02-09T11:13:28.701Z,63.73
2019-02-09T11:15:59.651Z,64.02
2019-02-09T11:18:31.594Z,64.21
2019-02-09T11:21:06.173Z,64.36
2019-02-09T11:23:36.597Z,64.39
2019-02-09T11:26:07.560Z,64.63
2019-02-09T11:28:37.947Z,64.71
2019-02-09T11:31:08.750Z,64.97
2019-02-09T11:33:38.844Z,65.04
2019-02-09T11:36:09.096Z,64.69
2019-02-09T11:38:39.292Z,64.73
2019-02-09T11:41:09.639Z,64.65
2019-02-09T11:43:39.951Z,64.38
2019-02-09T11:46:10.167Z,64.50
2019-02-09T11:48:40.468Z,63.41
2019-02-09T11:51:10.705Z,63.28
2019-02-09T11:53:40.918Z,63.26
2019-02-09T11:56:11.170Z,62.66
2019-02-09T11:58:41.388Z,62.70
2019-02-09T12:01:11.622Z,62.53
2019-02-09T12:04:02.691Z,62.23
2019-02-09T12:06:34.079Z,62.33
2019-02-09T12:09:06.671Z,62.29
2019-02-09T12:11:37.102Z,62.34
2019-02-09T12:14:07.479Z,62.29
2019-02-09T12:16:37.903Z,62.11
2019-02-09T12:19:13.878Z,61.83
2019-02-09T12:21:47.271Z,61.98
2019-02-09T12:24:18.360Z,61.83
2019-02-09T12:26:48.737Z,61.81
2019-02-09T12:29:19.042Z,61.84
2019-02-09T12:31:49.420Z,61.65
2019-02-09T12:34:19.802Z,61.23
2019-02-09T12:36:50.050Z,61.12
2019-02-09T12:39:21.910Z,61.02
2019-02-09T12:41:52.181Z,60.95
2019-02-09T12:44:22.478Z,60.88
2019-02-09T12:46:52.657Z,61.15
2019-02-09T12:49:22.978Z,61.17
2019-02-09T12:51:53.311Z,61.25
2019-02-09T12:54:23.543Z,61.37
2019-02-09T12:56:54.027Z,61.46
2019-02-09T12:59:24.521Z,61.50
2019-02-09T13:01:54.785Z,61.58
2019-02-09T13:04:25.163Z,61.81
2019-02-09T13:06:55.486Z,61.83
2019-02-09T13:09:25.801Z,61.84
2019-02-09T13:11:56.181Z,61.78
2019-02-09T13:14:26.451Z,61.86
2019-02-09T13:16:56.672Z,61.61
2019-02-09T13:19:26.944Z,61.84
2019-02-09T13:21:57.153Z,62.03
2019-02-09T13:24:27.323Z,61.96
2019-02-09T13:26:57.533Z,61.97
2019-02-09T13:29:27.867Z,61.83
2019-02-09T13:31:59.617Z,61.63
2019-02-09T13:34:29.985Z,61.72
2019-02-09T13:37:00.272Z,61.67
2019-02-09T13:39:30.477Z,61.64
2019-02-09T13:42:00.821Z,61.81
2019-02-09T13:44:31.354Z,61.78
2019-02-09T13:47:01.649Z,61.76
2019-02-09T13:49:31.940Z,61.55
2019-02-09T13:52:02.189Z,61.38
2019-02-09T13:54:33.556Z,61.49
2019-02-09T13:57:05.437Z,61.20
2019-02-09T13:59:39.965Z,61.37
2019-02-09T14:02:10.188Z,61.39
2019-02-09T14:04:40.439Z,61.48
2019-02-09T14:07:10.712Z,61.61
2019-02-09T14:09:40.966Z,61.77
2019-02-09T14:12:11.339Z,61.91
2019-02-09T14:14:41.622Z,61.99
2019-02-09T14:17:11.977Z,62.12
2019-02-09T14:19:42.748Z,62.30
2019-02-09T14:22:12.961Z,62.49
2019-02-09T14:24:43.242Z,62.59
2019-02-09T14:27:13.561Z,62.66
2019-02-09T14:29:43.795Z,62.75
2019-02-09T14:32:13.966Z,62.83
2019-02-09T14:34:44.192Z,62.84
2019-02-09T14:37:14.445Z,62.98
2019-02-09T14:39:46.768Z,63.08
2019-02-09T14:42:19.016Z,63.12
2019-02-09T14:44:49.375Z,63.20
2019-02-09T14:47:19.751Z,63.10
2019-02-09T14:49:50.156Z,63.14
2019-02-09T14:52:22.162Z,63.23
2019-02-09T14:54:52.377Z,63.41
2019-02-09T14:57:22.692Z,63.51
2019-02-09T14:59:52.946Z,63.58
2019-02-09T15:02:23.226Z,63.63
2019-02-09T15:04:53.441Z,63.77
2019-02-09T15:07:23.767Z,63.46
2019-02-09T15:09:54.105Z,63.39
2019-02-09T15:12:24.263Z,63.34
2019-02-09T15:14:54.440Z,63.22
2019-02-09T15:17:24.795Z,63.15
2019-02-09T15:19:55.013Z,63.21
2019-02-09T15:22:25.266Z,63.28
2019-02-09T15:24:55.439Z,63.37
2019-02-09T15:28:01.365Z,63.38
2019-02-09T15:30:32.291Z,63.40
2019-02-09T15:33:02.650Z,63.60
2019-02-09T15:35:32.978Z,63.49
2019-02-09T15:38:03.239Z,63.45
2019-02-09T15:40:33.395Z,63.50
2019-02-09T15:43:03.769Z,63.55
2019-02-09T15:45:34.062Z,63.61
2019-02-09T15:48:04.429Z,63.61
2019-02-09T15:50:34.717Z,63.69
2019-02-09T15:53:05.219Z,63.74
2019-02-09T15:55:35.485Z,63.87
2019-02-09T15:58:07.538Z,63.97
2019-02-09T16:00:37.919Z,64.02
2019-02-09T16:03:08.187Z,64.00
2019-02-09T16:05:38.469Z,64.11
2019-02-09T16:08:08.899Z,64.12
2019-02-09T16:10:39.182Z,64.19
2019-02-09T16:13:09.412Z,64.27
2019-02-09T16:15:39.769Z,64.36
2019-02-09T16:18:10.060Z,64.59
2019-02-09T16:20:40.670Z,64.71
2019-02-09T16:23:10.904Z,64.91
2019-02-09T16:25:41.218Z,65.16
2019-02-09T16:28:11.585Z,65.32
2019-02-09T16:30:41.962Z,65.50
2019-02-09T16:33:12.207Z,65.61
2019-02-09T16:35:42.483Z,65.72
2019-02-09T16:38:12.791Z,65.84
2019-02-09T16:40:43.031Z,65.95
2019-02-09T16:43:13.841Z,65.99
2019-02-09T16:45:44.141Z,65.99
2019-02-09T16:48:14.387Z,66.01
2019-02-09T16:50:44.612Z,65.97
2019-02-09T16:53:14.864Z,65.93
2019-02-09T16:55:45.209Z,65.88
2019-02-09T16:58:15.514Z,65.83
2019-02-09T17:00:45.997Z,65.75
2019-02-09T17:03:16.193Z,65.60
2019-02-09T17:05:46.438Z,64.59
2019-02-09T17:08:16.790Z,64.78
2019-02-09T17:10:47.027Z,64.82
2019-02-09T17:13:17.558Z,64.77
2019-02-09T17:15:47.956Z,64.83
2019-02-09T17:18:18.191Z,64.71
2019-02-09T17:20:48.367Z,64.76
2019-02-09T17:23:20.462Z,64.86
2019-02-09T17:25:52.131Z,64.73
2019-02-09T17:28:22.699Z,64.81
2019-02-09T17:30:53.465Z,64.89
2019-02-09T17:33:24.054Z,65.04
2019-02-09T17:35:54.564Z,65.10
2019-02-09T17:38:25.134Z,65.11
2019-02-09T17:40:55.655Z,65.17
2019-02-09T17:43:26.262Z,65.27
2019-02-09T17:46:06.707Z,65.25
2019-02-09T17:48:41.934Z,65.38
2019-02-09T17:51:12.512Z,65.44
2019-02-09T17:56:22.161Z,65.60
2019-02-09T17:58:52.672Z,65.80
2019-02-09T18:01:23.285Z,65.89
2019-02-09T18:03:53.745Z,66.06
2019-02-09T18:06:24.501Z,66.15
2019-02-09T18:08:54.984Z,66.21
2019-02-09T18:11:25.562Z,66.31
2019-02-09T18:13:56.058Z,66.48
2019-02-09T18:16:26.680Z,66.55
2019-02-09T18:18:57.442Z,66.87
2019-02-09T18:21:28.651Z,67.01
2019-02-09T18:23:59.315Z,67.11
2019-02-09T18:26:29.775Z,67.22
2019-02-09T18:29:00.618Z,67.42
2019-02-09T18:31:31.228Z,67.38
2019-02-09T18:34:01.738Z,67.32
2019-02-09T18:36:32.365Z,67.27
2019-02-09T18:39:04.051Z,67.23
2019-02-09T18:41:34.466Z,67.21
2019-02-09T18:44:04.957Z,67.27
2019-02-09T18:46:35.495Z,67.35
2019-02-09T18:49:07.264Z,67.36
2019-02-09T18:51:37.966Z,67.40
2019-02-09T18:54:08.414Z,67.49
2019-02-09T18:56:38.875Z,67.54
2019-02-09T18:59:09.476Z,67.58
2019-02-09T19:01:40.043Z,67.66
2019-02-09T19:04:10.469Z,67.75
2019-02-09T19:06:41.008Z,67.84
2019-02-09T19:09:12.135Z,68.00
2019-02-09T19:11:42.536Z,68.12
2019-02-09T19:14:13.166Z,68.36
2019-02-09T19:16:43.713Z,68.52
2019-02-09T19:19:14.238Z,68.81
2019-02-09T19:21:46.520Z,68.94
2019-02-09T19:24:17.191Z,69.01
2019-02-09T19:26:47.841Z,69.17
2019-02-09T19:29:18.525Z,69.33
2019-02-09T19:31:49.217Z,69.34
2019-02-09T19:34:19.596Z,69.48
2019-02-09T19:36:49.751Z,69.52
2019-02-09T19:39:20.002Z,69.56
2019-02-09T19:41:50.245Z,69.69
2019-02-09T19:44:20.510Z,69.77
2019-02-09T19:46:50.789Z,69.89
2019-02-09T19:49:20.999Z,69.81
2019-02-09T19:51:51.272Z,69.90
2019-02-09T19:54:21.461Z,69.96
2019-02-09T19:56:51.680Z,70.02
2019-02-09T19:59:21.937Z,70.21
2019-02-09T20:01:52.210Z,70.22
2019-02-09T20:04:22.514Z,70.27
2019-02-09T20:06:52.919Z,70.39
2019-02-09T20:09:23.135Z,70.48
2019-02-09T20:11:53.400Z,70.60
2019-02-09T20:14:23.636Z,70.68
2019-02-09T20:16:53.733Z,70.84
2019-02-09T20:19:26.998Z,70.93
2019-02-09T20:21:57.155Z,71.06
2019-02-09T20:24:27.419Z,71.21
2019-02-09T20:26:57.684Z,71.36
2019-02-09T20:29:27.921Z,71.42
2019-02-09T20:32:01.599Z,71.46
2019-02-09T20:34:30.853Z,71.64
2019-02-09T20:37:01.326Z,71.88
2019-02-09T20:39:32.007Z,72.10
2019-02-09T20:42:02.624Z,72.35
2019-02-09T20:44:33.541Z,72.63
2019-02-09T20:47:03.965Z,72.87
2019-02-09T20:49:34.546Z,73.04
2019-02-09T20:52:05.108Z,73.30
2019-02-09T20:54:36.008Z,73.44
2019-02-09T20:57:07.029Z,73.53
2019-02-09T20:59:37.531Z,73.59
2019-02-09T21:02:08.307Z,73.65
2019-02-09T21:04:38.907Z,73.54
2019-02-09T21:07:09.571Z,73.54
2019-02-09T21:09:42.017Z,73.54
2019-02-09T21:12:12.680Z,73.50
2019-02-09T21:14:43.134Z,73.54
2019-02-09T21:17:13.975Z,73.58
2019-02-09T21:19:44.445Z,73.57
2019-02-09T21:22:15.047Z,73.60
2019-02-09T21:24:46.376Z,73.58
2019-02-09T21:27:17.147Z,73.60
2019-02-09T21:29:47.839Z,73.60
2019-02-09T21:32:18.392Z,73.65
2019-02-09T21:34:48.935Z,73.69
2019-02-09T21:37:19.633Z,73.76
2019-02-09T21:39:50.362Z,73.80
2019-02-09T21:42:20.901Z,73.88
2019-02-09T21:44:51.368Z,74.05
2019-02-09T21:47:21.863Z,74.25
2019-02-09T21:49:52.050Z,74.32
2019-02-09T21:52:22.351Z,74.39
2019-02-09T21:54:52.595Z,74.58
2019-02-09T21:57:22.909Z,74.77
2019-02-09T21:59:53.036Z,74.90
2019-02-09T22:02:23.375Z,75.12
2019-02-09T22:04:53.610Z,75.08
2019-02-09T22:07:23.912Z,75.38
2019-02-09T22:09:54.115Z,75.49
2019-02-09T22:12:24.506Z,75.50
2019-02-09T22:14:54.914Z,75.57
2019-02-09T22:17:25.374Z,75.59
2019-02-09T22:19:55.629Z,75.61
2019-02-09T22:22:25.885Z,75.57
2019-02-09T22:24:56.337Z,75.60
2019-02-09T22:27:26.590Z,75.72
2019-02-09T22:29:56.717Z,75.71
2019-02-09T22:32:26.962Z,75.60
2019-02-09T22:34:57.146Z,75.59
2019-02-09T22:37:27.445Z,75.54
2019-02-09T22:39:57.793Z,75.59
2019-02-09T22:42:28.373Z,75.58
2019-02-09T22:44:58.601Z,75.57
2019-02-09T22:47:28.805Z,75.57
2019-02-09T22:49:59.062Z,75.57
2019-02-09T22:52:29.197Z,75.72
2019-02-09T22:54:59.412Z,75.84
2019-02-09T22:57:29.782Z,75.85
2019-02-09T23:00:00.197Z,75.87
2019-02-09T23:02:30.412Z,75.94
2019-02-09T23:05:59.025Z,75.99
2019-02-09T23:08:29.254Z,76.06
2019-02-09T23:10:59.437Z,76.01
2019-02-09T23:13:29.770Z,75.94
2019-02-09T23:15:59.947Z,75.99
2019-02-09T23:18:30.187Z,75.99
2019-02-09T23:21:00.397Z,76.01
2019-02-09T23:23:31.098Z,75.99
2019-02-09T23:26:01.455Z,75.94
2019-02-09T23:28:31.701Z,75.81
2019-02-09T23:31:01.826Z,75.71
2019-02-09T23:33:32.027Z,75.63
2019-02-09T23:36:02.313Z,75.57
2019-02-09T23:38:32.589Z,75.54
2019-02-09T23:41:02.810Z,75.52
2019-02-09T23:43:32.971Z,75.46
2019-02-09T23:46:03.220Z,75.50
2019-02-09T23:48:33.345Z,75.60
2019-02-09T23:51:03.583Z,75.72
2019-02-09T23:53:33.750Z,75.80
2019-02-09T23:56:03.967Z,75.91
2019-02-09T23:58:34.162Z,75.97
